Impacts TAF Board INFO
FOR SITUATIONAL AWARENESS. NOT TO BE USED FOR FLIGHT PLANNING PURPOSES.
IDs:

KDCA - Washington/National, VA, US

Issued at 2320 UTC 19 Oct 2017
Updated at 2326 UTC 19 Oct 2017
Potential Impact None Slight Moderate High
Time2252Z 20/00Z 20/01Z 20/02Z 20/03Z 20/04Z 20/05Z 20/06Z 20/07Z 20/08Z 20/09Z 20/10Z 20/11Z 20/12Z>>
Type OBS PRVL PRVL PRVL PRVL PRVL PRVL PRVL PRVL PRVL PRVL PRVL PRVL PRVL
VIS 10 >6 >6 >6 >6 >6 >6 >6 >6 >6 >6 >6 >6 >6
CIG -- -- -- -- -- -- -- -- -- -- -- -- -- --
Cover FEW FEW FEW FEW FEW FEW FEW FEW FEW FEW FEW FEW FEW FEW
FltCat VFR VFR VFR VFR VFR VFR VFR VFR VFR VFR VFR VFR VFR VFR
WX -- -- -- -- -- -- -- -- -- -- -- -- -- --
WDir 190 200 200 200 200 200 200 200 200 310 310 310 310 310
WSpd 8 4 4 4 4 4 4 4 4 5 5 5 5 5
WGst -- -- -- -- -- -- -- -- -- -- -- -- -- --

Raw TAF
KDCA 192320Z 2000/2024 20004KT P6SM FEW250
  FM200800 31005KT P6SM FEW250
  FM201300 34008KT P6SM FEW250


Raw METAR
KDCA 192252Z 19008KT 10SM FEW250 18/12 A3015 RMK AO2 SLP209 T01830122
KDCA 192152Z 21004KT 10SM SCT250 21/08 A3015 RMK AO2 SLP212 T02060078
KDCA 192052Z 17008KT 10SM SCT250 22/11 A3016 RMK AO2 SLP212 T02170106 56019

METAR Board
Radar Display
Forecast Discussion

FOR SITUATIONAL AWARENESS. NOT TO BE USED FOR FLIGHT PLANNING PURPOSES.